Time;durP1;ratioP1;P1;durP2;ratioP2;P2;SDS_P1;SDS_P2;PMS_P1;PMS_P2;Temp;Humidity;BMP_temperature;BMP_pressure;BME280_temperature;BME280_humidity;BME280_pressure;Samples;Min_cycle;Max_cycle;Signal;HPM_P1;HPM_P2
2023/10/15 00:00:19;;;;;;;6.88;1.90;;;12.40;55.00;;;;;;5063312;28;20053;-52
2023/10/15 00:02:47;;;;;;;6.20;1.35;;;12.30;54.90;;;;;;5065699;28;20055;-51
2023/10/15 00:05:17;;;;;;;5.75;1.27;;;12.30;54.90;;;;;;5062828;28;20053;-52
2023/10/15 00:07:45;;;;;;;8.52;1.35;;;12.30;55.00;;;;;;5062382;28;20048;-52
2023/10/15 00:10:14;;;;;;;4.65;1.38;;;12.30;55.00;;;;;;5064053;28;20051;-54
2023/10/15 00:12:43;;;;;;;8.80;1.33;;;12.30;55.10;;;;;;5063557;28;20440;-51
2023/10/15 00:15:14;;;;;;;5.53;1.10;;;12.30;55.10;;;;;;5065310;28;20063;-50
2023/10/15 00:17:43;;;;;;;8.38;1.60;;;12.30;55.20;;;;;;5065960;28;20044;-53
2023/10/15 00:20:14;;;;;;;6.28;1.42;;;12.30;55.20;;;;;;5062234;28;20044;-51
2023/10/15 00:22:43;;;;;;;6.18;1.45;;;12.30;55.30;;;;;;5063867;28;20060;-50
2023/10/15 00:25:12;;;;;;;10.48;2.28;;;12.30;55.30;;;;;;5063940;28;20071;-50
2023/10/15 00:27:41;;;;;;;6.13;1.67;;;12.30;55.40;;;;;;5064193;28;20055;-53
2023/10/15 00:30:14;;;;;;;6.78;1.55;;;12.30;55.40;;;;;;5064233;28;20059;-52
2023/10/15 00:32:43;;;;;;;11.60;1.55;;;12.30;55.40;;;;;;5064312;28;20066;-52
2023/10/15 00:35:11;;;;;;;9.45;1.73;;;12.30;55.40;;;;;;5063387;28;20079;-53
2023/10/15 00:37:40;;;;;;;5.85;1.27;;;12.30;55.90;;;;;;5063790;28;20382;-52
2023/10/15 00:40:16;;;;;;;10.05;1.70;;;12.30;55.30;;;;;;5063682;28;20479;-53
2023/10/15 00:42:46;;;;;;;9.43;1.40;;;12.40;55.40;;;;;;5064685;28;20056;-50
2023/10/15 00:45:14;;;;;;;7.60;1.52;;;12.30;55.30;;;;;;5066213;28;20048;-53
2023/10/15 00:47:44;;;;;;;12.50;1.83;;;12.30;55.30;;;;;;5065083;28;20060;-53
2023/10/15 00:50:14;;;;;;;9.20;1.60;;;12.30;55.30;;;;;;5063265;28;20055;-53
2023/10/15 00:52:43;;;;;;;12.43;1.80;;;12.30;55.30;;;;;;5063961;28;20075;-51
2023/10/15 00:55:17;;;;;;;6.78;1.67;;;12.30;55.30;;;;;;5064939;28;20048;-51
2023/10/15 00:57:47;;;;;;;12.35;1.98;;;12.30;55.30;;;;;;5065674;28;20051;-52
2023/10/15 01:03:14;;;;;;;6.75;1.83;;;12.30;55.30;;;;;;5014050;28;20053;-52
2023/10/15 01:05:52;;;;;;;6.75;1.30;;;12.30;55.30;;;;;;5053166;28;20066;-52
2023/10/15 01:08:26;;;;;;;8.57;1.52;;;12.30;55.30;;;;;;5063494;28;20523;-51
2023/10/15 01:11:10;;;;;;;5.53;1.50;;;12.30;55.40;;;;;;5065075;28;20518;-51
2023/10/15 01:13:39;;;;;;;8.95;1.73;;;12.20;55.30;;;;;;5064588;28;20486;-53
2023/10/15 01:16:08;;;;;;;4.85;1.63;;;12.20;55.30;;;;;;5067406;28;20060;-55
2023/10/15 01:18:38;;;;;;;5.50;1.60;;;12.20;55.40;;;;;;5069292;28;20052;-51
2023/10/15 01:21:09;;;;;;;10.52;2.13;;;12.20;55.40;;;;;;5067043;28;20052;-54
2023/10/15 01:23:44;;;;;;;5.72;1.48;;;12.20;55.50;;;;;;5067399;28;20083;-53
2023/10/15 01:26:23;;;;;;;8.25;1.80;;;12.20;55.50;;;;;;5069493;28;20062;-54
2023/10/15 01:28:51;;;;;;;7.47;1.50;;;12.10;55.50;;;;;;5065829;28;20048;-53
2023/10/15 01:31:18;;;;;;;7.90;1.33;;;12.10;55.50;;;;;;5067553;28;20052;-50
2023/10/15 01:33:49;;;;;;;11.75;1.63;;;12.10;55.50;;;;;;5066550;28;20401;-52
2023/10/15 01:36:19;;;;;;;7.70;1.50;;;12.10;55.60;;;;;;5067590;28;20416;-54
2023/10/15 01:38:50;;;;;;;4.68;1.50;;;12.10;55.70;;;;;;5067465;28;20048;-53
2023/10/15 01:41:25;;;;;;;10.57;1.70;;;12.10;55.70;;;;;;5067704;28;20075;-50
2023/10/15 01:43:53;;;;;;;6.95;2.00;;;12.00;55.70;;;;;;5068516;28;20060;-52
2023/10/15 01:46:39;;;;;;;5.60;1.27;;;12.00;55.80;;;;;;5066880;28;20047;-53
2023/10/15 01:49:07;;;;;;;6.40;1.27;;;12.00;55.80;;;;;;5067738;28;20052;-52
2023/10/15 01:51:40;;;;;;;7.68;1.33;;;12.00;55.80;;;;;;5064964;28;20428;-54
2023/10/15 01:54:09;;;;;;;7.95;1.70;;;12.00;55.80;;;;;;5067518;28;20415;-52
2023/10/15 01:56:38;;;;;;;9.10;1.58;;;12.00;55.90;;;;;;5066100;28;20051;-55
2023/10/15 01:59:08;;;;;;;5.57;1.35;;;12.00;55.80;;;;;;5065901;28;20063;-52
2023/10/15 02:01:40;;;;;;;8.35;1.70;;;12.00;55.80;;;;;;5067182;28;20052;-54
2023/10/15 02:04:12;;;;;;;10.43;1.15;;;12.00;56.30;;;;;;5065559;28;21161;-50
2023/10/15 02:06:43;;;;;;;8.90;1.70;;;12.00;55.90;;;;;;5065617;28;20052;-55
2023/10/15 02:09:13;;;;;;;9.75;1.42;;;12.00;55.90;;;;;;5066096;28;20488;-53
2023/10/15 02:11:47;;;;;;;10.13;1.70;;;12.00;55.90;;;;;;5066075;28;20401;-54
2023/10/15 02:14:21;;;;;;;7.38;1.40;;;11.90;55.80;;;;;;5067723;27;20059;-50
2023/10/15 02:16:49;;;;;;;7.10;1.67;;;11.90;55.90;;;;;;5065607;28;20059;-54
2023/10/15 02:19:34;;;;;;;8.13;1.58;;;11.90;55.90;;;;;;5064728;28;20052;-53
2023/10/15 02:22:02;;;;;;;5.47;1.33;;;11.90;55.90;;;;;;5064918;28;20052;-50
2023/10/15 02:24:32;;;;;;;9.35;1.67;;;11.90;55.90;;;;;;5065255;28;20048;-52
2023/10/15 02:27:05;;;;;;;7.93;1.60;;;11.80;55.90;;;;;;5065703;28;20075;-52
2023/10/15 02:29:36;;;;;;;5.03;1.40;;;11.80;55.90;;;;;;5066370;28;20044;-51
2023/10/15 02:32:20;;;;;;;7.30;1.33;;;11.80;55.90;;;;;;5065854;28;20059;-52
2023/10/15 02:34:50;;;;;;;;;;;11.80;55.90;;;;;;5065534;28;20075;-51
2023/10/15 02:37:18;;;;;;;9.75;1.25;;;11.80;55.80;;;;;;5066571;28;19920;-53
2023/10/15 02:39:50;;;;;;;5.45;1.55;;;11.80;55.70;;;;;;5065321;28;20602;-50
2023/10/15 02:42:18;;;;;;;9.30;2.47;;;11.80;55.80;;;;;;5065994;28;20052;-54
2023/10/15 02:44:50;;;;;;;7.93;1.60;;;11.70;55.90;;;;;;5065414;28;20064;-56
2023/10/15 02:47:28;;;;;;;9.57;1.38;;;11.70;56.00;;;;;;5065254;28;20052;-51
2023/10/15 02:50:00;;;;;;;7.85;1.48;;;11.60;56.00;;;;;;5064777;28;20436;-55
2023/10/15 02:52:35;;;;;;;9.65;1.42;;;11.60;56.00;;;;;;5065848;28;20057;-54
2023/10/15 02:55:09;;;;;;;7.13;1.40;;;11.60;56.20;;;;;;5066076;28;20063;-54
2023/10/15 02:57:39;;;;;;;8.73;1.52;;;11.60;56.30;;;;;;5065069;28;20504;-54
2023/10/15 03:00:13;;;;;;;5.90;1.40;;;11.50;56.20;;;;;;5065942;28;20060;-56
2023/10/15 03:02:43;;;;;;;8.80;1.55;;;11.50;56.30;;;;;;5065554;28;20052;-54
2023/10/15 03:05:13;;;;;;;8.63;1.60;;;11.50;56.40;;;;;;5063300;28;20058;-53
2023/10/15 03:07:43;;;;;;;9.57;1.70;;;11.50;56.50;;;;;;5064412;28;20044;-54
2023/10/15 03:10:12;;;;;;;8.25;1.45;;;11.40;56.50;;;;;;5065488;28;20059;-55
2023/10/15 03:12:44;;;;;;;7.68;1.63;;;11.40;56.50;;;;;;5065919;28;20056;-53
2023/10/15 03:15:14;;;;;;;6.15;1.45;;;11.40;56.60;;;;;;5064397;28;20048;-54
2023/10/15 03:17:42;;;;;;;10.48;1.65;;;11.40;56.60;;;;;;5064853;28;20041;-53
2023/10/15 03:20:24;;;;;;;9.65;2.00;;;11.30;56.60;;;;;;5063773;28;20040;-53
2023/10/15 03:22:51;;;;;;;6.93;1.52;;;11.30;56.60;;;;;;5065059;28;20052;-52
2023/10/15 03:25:20;;;;;;;5.47;1.48;;;11.30;56.70;;;;;;5064985;28;20056;-55
2023/10/15 03:27:49;;;;;;;7.35;1.80;;;11.30;56.80;;;;;;5064723;28;20067;-54
2023/10/15 03:30:23;;;;;;;4.28;1.05;;;11.30;56.80;;;;;;5064317;28;20056;-55
2023/10/15 03:32:52;;;;;;;;;;;11.30;56.90;;;;;;5066753;28;20053;-54
2023/10/15 03:35:32;;;;;;;6.07;1.20;;;11.30;56.90;;;;;;4940766;28;19929;-54
2023/10/15 03:38:46;;;;;;;10.48;1.90;;;11.30;56.90;;;;;;4939019;27;20604;-53
2023/10/15 03:41:21;;;;;;;8.20;1.90;;;11.30;56.90;;;;;;4982568;28;20062;-52
2023/10/15 03:43:49;;;;;;;8.60;1.73;;;11.30;56.90;;;;;;4982570;28;20058;-54
2023/10/15 03:46:19;;;;;;;8.48;1.52;;;11.30;56.90;;;;;;4982312;28;20433;-53
2023/10/15 03:48:50;;;;;;;15.95;2.20;;;11.30;56.80;;;;;;4981478;28;20050;-53
2023/10/15 03:51:20;;;;;;;6.75;1.80;;;11.30;56.80;;;;;;4982326;28;20054;-52
2023/10/15 03:53:50;;;;;;;11.32;2.10;;;11.30;56.80;;;;;;4980904;28;20073;-53
2023/10/15 03:56:18;;;;;;;7.82;1.52;;;11.30;56.80;;;;;;4982322;28;20057;-55
2023/10/15 03:58:45;;;;;;;12.32;1.73;;;11.30;56.70;;;;;;4980806;28;20082;-50
2023/10/15 04:01:16;;;;;;;5.85;1.90;;;11.30;56.60;;;;;;4982118;28;20050;-52
2023/10/15 04:03:47;;;;;;;8.32;1.60;;;11.30;56.60;;;;;;4980507;28;20059;-52
2023/10/15 04:06:15;;;;;;;7.82;2.05;;;11.30;56.70;;;;;;4972613;28;20054;-51
2023/10/15 04:08:59;;;;;;;6.88;1.65;;;11.30;56.60;;;;;;4961335;28;20047;-50
2023/10/15 04:11:30;;;;;;;7.80;1.80;;;11.40;56.50;;;;;;4963932;28;20051;-53
2023/10/15 04:14:01;;;;;;;10.88;1.90;;;11.40;56.50;;;;;;4961769;28;20529;-52
2023/10/15 04:16:29;;;;;;;10.43;2.25;;;11.40;56.60;;;;;;4963201;28;20051;-55
2023/10/15 04:19:00;;;;;;;9.80;2.10;;;11.40;56.50;;;;;;4962013;28;20055;-54
2023/10/15 04:21:27;;;;;;;8.95;1.58;;;11.40;56.50;;;;;;4960857;28;20070;-54
2023/10/15 04:23:56;;;;;;;7.85;2.30;;;11.40;56.60;;;;;;4963133;28;20051;-53
2023/10/15 04:26:28;;;;;;;6.00;1.67;;;11.50;56.50;;;;;;4961671;28;20047;-53
2023/10/15 04:28:58;;;;;;;8.60;2.08;;;11.50;56.50;;;;;;4962165;28;20070;-55
2023/10/15 04:31:29;;;;;;;10.60;2.22;;;11.50;56.50;;;;;;4970165;28;20200;-52
2023/10/15 04:33:57;;;;;;;11.30;2.38;;;11.50;56.50;;;;;;4981795;28;20057;-52
2023/10/15 04:36:25;;;;;;;9.18;2.03;;;11.60;56.50;;;;;;4993222;28;20082;-54
2023/10/15 04:39:08;;;;;;;9.13;2.28;;;11.60;56.40;;;;;;4993653;28;20481;-52
2023/10/15 04:41:35;;;;;;;9.93;1.75;;;11.60;56.40;;;;;;4975362;28;20384;-53
2023/10/15 04:44:04;;;;;;;8.27;1.77;;;11.60;56.40;;;;;;4965319;28;20069;-54
2023/10/15 04:46:40;;;;;;;11.90;2.22;;;11.70;56.40;;;;;;4962843;28;20066;-51
2023/10/15 04:49:09;;;;;;;6.55;1.83;;;11.70;56.30;;;;;;4956480;28;20102;-50
2023/10/15 04:51:42;;;;;;;8.90;2.33;;;11.70;56.30;;;;;;4949836;28;20047;-54
2023/10/15 04:54:09;;;;;;;7.45;2.05;;;11.70;56.20;;;;;;4955243;28;20059;-54
2023/10/15 04:56:37;;;;;;;8.35;2.10;;;11.70;56.00;;;;;;4956676;28;20055;-53
2023/10/15 04:59:06;;;;;;;9.07;2.03;;;11.70;56.00;;;;;;4956116;28;20384;-51
2023/10/15 05:01:34;;;;;;;7.30;2.53;;;11.70;56.00;;;;;;4952660;28;20102;-54
2023/10/15 05:04:02;;;;;;;7.82;2.00;;;11.70;55.90;;;;;;4952479;28;20062;-55
2023/10/15 05:06:29;;;;;;;16.27;2.85;;;11.60;55.90;;;;;;4952119;28;20554;-54
2023/10/15 05:08:57;;;;;;;11.02;2.45;;;11.60;55.80;;;;;;4953379;28;20055;-53
2023/10/15 05:11:24;;;;;;;9.77;2.40;;;11.60;55.80;;;;;;4951647;28;20124;-54
2023/10/15 05:13:52;;;;;;;8.52;2.10;;;11.60;56.30;;;;;;4952347;28;20427;-53
2023/10/15 05:16:21;;;;;;;9.88;2.10;;;11.60;55.70;;;;;;4952648;28;20054;-52
2023/10/15 05:18:48;;;;;;;7.78;2.42;;;11.60;55.80;;;;;;4951432;28;20051;-52
2023/10/15 05:21:15;;;;;;;8.63;2.03;;;11.60;55.90;;;;;;4952174;28;20051;-53
2023/10/15 05:23:43;;;;;;;7.18;2.10;;;11.60;55.80;;;;;;4954762;28;20059;-48
2023/10/15 05:26:10;;;;;;;8.73;2.30;;;11.50;55.80;;;;;;4955176;28;20610;-53
2023/10/15 05:28:37;;;;;;;9.52;2.45;;;11.50;56.00;;;;;;4954156;28;20063;-53
2023/10/15 05:31:04;;;;;;;10.35;2.30;;;11.50;56.00;;;;;;4952591;28;20066;-50
2023/10/15 05:33:33;;;;;;;13.95;2.83;;;11.50;56.10;;;;;;4953322;28;20055;-52
2023/10/15 05:36:00;;;;;;;8.32;2.05;;;11.50;56.20;;;;;;4956229;28;20062;-53
2023/10/15 05:38:29;;;;;;;6.82;2.22;;;11.50;56.10;;;;;;4955417;28;20055;-52
2023/10/15 05:41:00;;;;;;;9.82;2.33;;;11.50;56.20;;;;;;4955226;28;20081;-51
2023/10/15 05:43:27;;;;;;;11.15;2.05;;;11.50;56.40;;;;;;4954035;28;20096;-52
2023/10/15 05:45:55;;;;;;;9.40;2.60;;;11.50;56.50;;;;;;4955509;28;20077;-50
2023/10/15 05:48:22;;;;;;;7.15;2.17;;;11.50;56.50;;;;;;4954960;28;20062;-52
2023/10/15 05:50:51;;;;;;;11.48;2.63;;;11.50;56.60;;;;;;4954078;28;20055;-52
2023/10/15 05:53:19;;;;;;;11.52;2.22;;;11.50;56.60;;;;;;4953222;28;20515;-52
2023/10/15 05:55:46;;;;;;;13.85;3.83;;;11.50;56.70;;;;;;4954658;28;20059;-53
2023/10/15 05:58:13;;;;;;;8.98;2.67;;;11.50;56.70;;;;;;4953053;28;20539;-52
2023/10/15 06:00:41;;;;;;;9.63;2.20;;;11.40;56.50;;;;;;4950808;28;20062;-50
2023/10/15 06:03:09;;;;;;;5.70;2.05;;;11.40;56.50;;;;;;4953808;28;20062;-50
2023/10/15 06:05:36;;;;;;;7.55;2.28;;;11.40;56.50;;;;;;4952419;28;20496;-55
2023/10/15 06:08:06;;;;;;;9.70;2.13;;;11.40;56.50;;;;;;4952634;28;20480;-51
2023/10/15 06:10:33;;;;;;;6.25;2.20;;;11.40;56.50;;;;;;4952899;28;20077;-54
2023/10/15 06:13:01;;;;;;;10.18;2.10;;;11.40;56.50;;;;;;4954967;28;20050;-53
2023/10/15 06:15:29;;;;;;;10.63;2.42;;;11.40;56.60;;;;;;4956820;28;20055;-53
2023/10/15 06:17:57;;;;;;;5.85;1.83;;;11.40;56.60;;;;;;4955576;28;20080;-53
2023/10/15 06:20:25;;;;;;;8.25;1.98;;;11.40;56.50;;;;;;4954099;28;20511;-53
2023/10/15 06:22:55;;;;;;;8.63;2.20;;;11.40;56.50;;;;;;4953493;28;20550;-50
2023/10/15 06:25:24;;;;;;;11.88;2.28;;;11.40;56.60;;;;;;4955435;28;20051;-52
2023/10/15 06:27:51;;;;;;;5.10;1.70;;;11.40;56.70;;;;;;4956218;28;20058;-52
2023/10/15 06:30:19;;;;;;;7.85;2.20;;;11.50;56.70;;;;;;4955968;28;20415;-51
2023/10/15 06:32:48;;;;;;;6.72;2.33;;;11.50;56.70;;;;;;4956202;28;20055;-54
2023/10/15 06:35:19;;;;;;;6.78;1.80;;;11.50;56.70;;;;;;4955322;28;20059;-53
2023/10/15 06:37:46;;;;;;;6.85;2.00;;;11.50;56.80;;;;;;4954965;28;20055;-53
2023/10/15 06:40:15;;;;;;;6.40;2.10;;;11.50;56.90;;;;;;4956449;28;20510;-54
2023/10/15 06:42:46;;;;;;;6.88;1.98;;;11.50;56.90;;;;;;4953596;28;20051;-53
2023/10/15 06:45:19;;;;;;;9.82;2.20;;;11.60;56.90;;;;;;4954373;28;20054;-51
2023/10/15 06:47:47;;;;;;;6.50;2.10;;;11.60;56.80;;;;;;4952591;28;20859;-53
2023/10/15 06:50:15;;;;;;;11.85;2.25;;;11.60;56.80;;;;;;4951093;28;20063;-50
2023/10/15 06:52:43;;;;;;;10.07;2.00;;;11.60;56.80;;;;;;4951963;28;20058;-53
2023/10/15 06:55:13;;;;;;;13.30;2.40;;;11.60;56.80;;;;;;4951311;28;20055;-50
2023/10/15 06:57:41;;;;;;;8.85;1.98;;;11.60;57.20;;;;;;4951415;28;20053;-49
2023/10/15 07:00:12;;;;;;;11.68;2.25;;;11.60;56.80;;;;;;4951595;28;20047;-53
2023/10/15 07:02:40;;;;;;;7.30;2.05;;;11.60;57.00;;;;;;4954406;28;20499;-50
2023/10/15 07:05:09;;;;;;;5.25;1.50;;;11.60;57.00;;;;;;4953012;28;20499;-55
2023/10/15 07:07:36;;;;;;;4.88;1.58;;;11.50;57.10;;;;;;4955486;28;20702;-56
2023/10/15 07:10:05;;;;;;;6.50;1.70;;;11.50;57.30;;;;;;4954820;28;20051;-57
2023/10/15 07:12:33;;;;;;;8.50;1.42;;;11.40;57.40;;;;;;4955633;28;20058;-56
2023/10/15 07:15:01;;;;;;;6.30;1.50;;;11.40;57.40;;;;;;4954510;28;20061;-56
2023/10/15 07:17:30;;;;;;;3.22;1.30;;;11.30;57.60;;;;;;4955953;28;20065;-50
2023/10/15 07:19:57;;;;;;;5.75;1.40;;;11.20;58.00;;;;;;4953805;28;20050;-48
2023/10/15 07:22:27;;;;;;;6.13;1.58;;;11.20;58.30;;;;;;4953939;28;20066;-52
2023/10/15 07:24:54;;;;;;;4.60;1.70;;;11.10;58.50;;;;;;4955306;28;20074;-51
2023/10/15 07:27:21;;;;;;;3.75;1.60;;;11.10;58.70;;;;;;4954762;28;20070;-54
2023/10/15 07:29:49;;;;;;;12.70;2.10;;;11.10;58.90;;;;;;4951517;28;20442;-53
2023/10/15 07:32:16;;;;;;;4.25;1.77;;;11.10;59.10;;;;;;4950147;28;20059;-53
2023/10/15 07:34:45;;;;;;;7.90;1.80;;;11.10;59.10;;;;;;4950703;28;20059;-52
2023/10/15 07:37:13;;;;;;;7.57;2.50;;;11.10;59.20;;;;;;4949981;28;20578;-51
2023/10/15 07:39:40;;;;;;;5.90;1.50;;;11.20;59.30;;;;;;4950683;28;20144;-51
2023/10/15 07:42:07;;;;;;;5.35;1.73;;;11.20;59.30;;;;;;4949796;28;20059;-50
2023/10/15 07:44:35;;;;;;;5.32;1.63;;;11.20;59.30;;;;;;4951161;28;20424;-52
2023/10/15 07:47:04;;;;;;;8.52;1.88;;;11.20;59.30;;;;;;4950831;28;20055;-53
2023/10/15 07:49:32;;;;;;;8.23;2.30;;;11.20;59.40;;;;;;4950585;28;20059;-51
2023/10/15 07:52:01;;;;;;;7.10;2.13;;;11.30;59.50;;;;;;4949929;28;20055;-50
2023/10/15 07:54:30;;;;;;;7.43;2.72;;;11.30;59.60;;;;;;4953122;28;20488;-53
2023/10/15 07:56:58;;;;;;;10.32;2.58;;;11.30;59.60;;;;;;4952881;28;20054;-52
2023/10/15 07:59:25;;;;;;;10.68;2.65;;;11.40;59.70;;;;;;4952377;28;20051;-50
2023/10/15 08:01:53;;;;;;;5.70;2.50;;;11.40;59.70;;;;;;4952418;28;20059;-51
2023/10/15 08:04:20;;;;;;;6.85;2.85;;;11.50;59.70;;;;;;4967000;28;20051;-54
2023/10/15 08:06:48;;;;;;;5.68;2.65;;;11.50;59.60;;;;;;4953790;28;20418;-53
2023/10/15 08:09:16;;;;;;;6.40;2.53;;;11.50;59.50;;;;;;4951683;28;20051;-51
2023/10/15 08:11:44;;;;;;;6.90;2.60;;;11.60;59.50;;;;;;4952024;28;20055;-51
2023/10/15 08:14:12;;;;;;;6.50;2.38;;;11.60;59.40;;;;;;4951700;28;20480;-49
2023/10/15 08:16:39;;;;;;;7.80;2.47;;;11.60;59.40;;;;;;4953270;28;20062;-53
2023/10/15 08:19:07;;;;;;;8.70;2.50;;;11.60;59.40;;;;;;4952128;28;20050;-51
2023/10/15 08:21:34;;;;;;;8.95;2.80;;;11.60;59.40;;;;;;4951754;28;20070;-52
2023/10/15 08:24:01;;;;;;;6.05;2.53;;;11.70;59.60;;;;;;4951544;28;20066;-52
2023/10/15 08:26:31;;;;;;;12.32;4.40;;;11.70;59.70;;;;;;4953183;28;20063;-46
2023/10/15 08:28:58;;;;;;;10.95;4.80;;;11.70;59.70;;;;;;4951517;28;20676;-48
2023/10/15 08:31:25;;;;;;;9.38;3.00;;;11.80;59.60;;;;;;4952143;28;20423;-47
2023/10/15 08:33:53;;;;;;;6.38;2.03;;;11.90;59.40;;;;;;4950082;28;20058;-49
2023/10/15 08:36:21;;;;;;;6.85;2.28;;;11.90;59.20;;;;;;4953199;28;20403;-47
2023/10/15 08:38:49;;;;;;;8.38;2.60;;;11.90;59.00;;;;;;4954385;28;20423;-47
2023/10/15 08:41:19;;;;;;;5.03;1.67;;;12.00;59.00;;;;;;4952614;28;20058;-49
2023/10/15 08:43:51;;;;;;;5.85;2.13;;;12.00;58.90;;;;;;4955483;28;20397;-50
2023/10/15 08:46:22;;;;;;;6.70;2.47;;;12.10;59.10;;;;;;4954935;28;20054;-50
2023/10/15 08:48:51;;;;;;;5.40;2.00;;;12.10;58.90;;;;;;4954551;28;20062;-48
2023/10/15 08:51:21;;;;;;;4.60;1.67;;;12.20;58.80;;;;;;4956059;28;20059;-52
2023/10/15 08:53:50;;;;;;;7.07;1.77;;;12.20;58.70;;;;;;4954119;28;20058;-46
2023/10/15 08:56:20;;;;;;;4.38;1.70;;;12.20;58.60;;;;;;4956960;28;20495;-51
2023/10/15 08:58:54;;;;;;;4.22;1.70;;;12.30;58.40;;;;;;4956121;28;20385;-49
2023/10/15 09:01:21;;;;;;;8.07;1.92;;;12.30;58.20;;;;;;4955135;28;20055;-51
2023/10/15 09:03:52;;;;;;;7.30;1.90;;;12.30;58.10;;;;;;4954318;28;20427;-49
2023/10/15 09:06:20;;;;;;;5.93;2.15;;;12.40;58.10;;;;;;4955936;28;20065;-50
2023/10/15 09:08:47;;;;;;;4.95;2.10;;;12.30;57.40;;;;;;4955413;28;20605;-50
2023/10/15 09:11:16;;;;;;;8.13;2.38;;;12.30;57.60;;;;;;4954347;28;20428;-49
2023/10/15 09:13:49;;;;;;;4.53;1.90;;;12.30;57.60;;;;;;4953650;28;20055;-49
2023/10/15 09:16:20;;;;;;;6.65;2.30;;;12.20;57.60;;;;;;4953574;28;20054;-47
2023/10/15 09:18:48;;;;;;;3.88;2.05;;;12.20;57.80;;;;;;4947521;28;20066;-47
2023/10/15 09:21:23;;;;;;;7.60;2.75;;;12.10;57.90;;;;;;4953185;28;20051;-48
2023/10/15 09:23:50;;;;;;;7.32;2.28;;;12.00;58.10;;;;;;4952640;28;20050;-49
2023/10/15 09:26:18;;;;;;;6.15;2.22;;;12.00;58.30;;;;;;4954391;28;20706;-48
2023/10/15 09:28:46;;;;;;;9.13;2.85;;;12.00;58.60;;;;;;4953954;28;20055;-51
2023/10/15 09:31:13;;;;;;;8.60;2.75;;;12.00;58.80;;;;;;4953814;28;20061;-50
2023/10/15 09:33:42;;;;;;;9.07;2.85;;;11.90;58.80;;;;;;4956522;28;20055;-49
2023/10/15 09:36:09;;;;;;;9.82;2.85;;;11.90;58.90;;;;;;4956858;28;20054;-48
2023/10/15 09:38:36;;;;;;;3.65;2.13;;;11.90;59.00;;;;;;4956727;28;20050;-51
2023/10/15 09:41:05;;;;;;;6.38;3.10;;;11.80;58.90;;;;;;4956893;28;20058;-48
2023/10/15 09:43:35;;;;;;;7.32;2.65;;;11.80;58.90;;;;;;4955829;28;20077;-49
2023/10/15 09:46:03;;;;;;;9.13;2.53;;;11.80;59.10;;;;;;4957385;28;20059;-49
2023/10/15 09:48:33;;;;;;;7.53;2.17;;;11.70;59.00;;;;;;4955781;28;21754;-52
2023/10/15 09:51:04;;;;;;;8.35;2.90;;;11.70;59.20;;;;;;4952485;28;20508;-53
2023/10/15 09:53:34;;;;;;;5.20;1.85;;;11.60;59.50;;;;;;4956293;28;20058;-51
2023/10/15 09:56:07;;;;;;;6.78;1.65;;;11.60;59.70;;;;;;4956470;28;20061;-48
2023/10/15 09:58:34;;;;;;;4.45;1.55;;;11.70;59.70;;;;;;4955065;28;20405;-48
2023/10/15 10:01:09;;;;;;;4.07;1.20;;;11.70;59.30;;;;;;4957346;28;20054;-47
2023/10/15 10:04:14;;;;;;;5.32;1.35;;;11.70;59.00;;;;;;4953928;28;21068;-50
2023/10/15 10:06:57;;;;;;;;;;;11.70;59.20;;;;;;4953909;28;20082;-49
2023/10/15 10:09:54;;;;;;;4.78;2.00;;;11.70;59.20;;;;;;4947819;28;19926;-50
2023/10/15 10:12:36;;;;;;;6.63;1.60;;;11.80;59.60;;;;;;4952459;28;20050;-48
2023/10/15 10:15:24;;;;;;;3.67;1.65;;;11.80;59.40;;;;;;4952920;28;20058;-50
2023/10/15 10:17:51;;;;;;;7.22;1.60;;;11.80;59.50;;;;;;4954375;28;20051;-49
2023/10/15 10:20:20;;;;;;;4.28;2.03;;;11.90;59.70;;;;;;4953561;28;20062;-48
2023/10/15 10:22:59;;;;;;;3.90;1.42;;;11.90;59.60;;;;;;4953849;28;20152;-52
2023/10/15 10:25:32;;;;;;;6.30;1.00;;;12.00;59.10;;;;;;4956324;28;20065;-49
2023/10/15 10:28:10;;;;;;;2.85;1.00;;;12.00;58.80;;;;;;4956899;28;20062;-51
2023/10/15 10:30:39;;;;;;;4.63;1.63;;;12.00;58.60;;;;;;4955111;28;20051;-50
2023/10/15 10:33:06;;;;;;;4.75;1.10;;;12.00;58.80;;;;;;4955209;28;20058;-49
2023/10/15 10:35:44;;;;;;;1.60;0.80;;;12.10;59.10;;;;;;4955435;28;20055;-49
2023/10/15 10:38:18;;;;;;;1.75;0.65;;;12.20;59.50;;;;;;4955212;28;20062;-47
2023/10/15 10:40:49;;;;;;;1.58;0.90;;;12.20;58.60;;;;;;4955562;28;20054;-49
2023/10/15 10:43:18;;;;;;;2.78;0.70;;;12.30;58.20;;;;;;4954692;28;20058;-50
2023/10/15 10:45:54;;;;;;;2.55;0.60;;;12.30;57.90;;;;;;4955381;28;20058;-47
2023/10/15 10:48:27;;;;;;;2.95;0.77;;;12.40;57.60;;;;;;4956171;28;20050;-46
2023/10/15 10:51:15;;;;;;;1.55;0.68;;;12.40;57.10;;;;;;4955094;28;20500;-50
2023/10/15 10:54:16;;;;;;;3.20;1.00;;;12.40;57.40;;;;;;4954529;28;20054;-47
2023/10/15 10:57:03;;;;;;;3.85;0.70;;;12.50;57.90;;;;;;4955075;28;20062;-46
2023/10/15 10:59:31;;;;;;;3.28;0.88;;;12.60;57.60;;;;;;4950673;28;20652;-48
2023/10/15 11:02:00;;;;;;;3.17;0.95;;;12.60;57.50;;;;;;4954955;28;20051;-51
2023/10/15 11:04:27;;;;;;;2.28;1.20;;;12.60;57.40;;;;;;4950225;28;20078;-49
2023/10/15 11:06:54;;;;;;;3.20;1.17;;;12.70;57.10;;;;;;4953868;28;20066;-51
2023/10/15 11:09:22;;;;;;;3.72;1.08;;;12.70;56.80;;;;;;4955524;28;20066;-50
2023/10/15 11:11:51;;;;;;;3.10;1.08;;;12.70;56.80;;;;;;4953149;28;20054;-50
2023/10/15 11:14:23;;;;;;;4.07;1.13;;;12.80;56.20;;;;;;4953982;28;20055;-50
2023/10/15 11:16:51;;;;;;;2.53;1.25;;;12.70;55.80;;;;;;4951476;28;20073;-52
2023/10/15 11:19:19;;;;;;;5.43;1.48;;;12.70;56.10;;;;;;4953758;28;20054;-49
2023/10/15 11:21:48;;;;;;;3.00;1.10;;;12.70;56.50;;;;;;4956948;28;20050;-51
2023/10/15 11:24:17;;;;;;;6.45;2.25;;;12.70;56.50;;;;;;4955877;28;20066;-46
2023/10/15 11:26:44;;;;;;;5.22;1.30;;;12.70;56.70;;;;;;4956813;28;20065;-46
2023/10/15 11:29:14;;;;;;;3.80;1.33;;;12.70;56.20;;;;;;4955695;28;20058;-51
2023/10/15 11:31:44;;;;;;;6.45;1.20;;;12.70;56.00;;;;;;4955294;28;20687;-50
2023/10/15 11:34:12;;;;;;;4.18;1.38;;;12.70;55.60;;;;;;4958022;28;20503;-50
2023/10/15 11:36:43;;;;;;;4.45;1.23;;;12.70;55.00;;;;;;4958140;28;20054;-54
2023/10/15 11:39:18;;;;;;;4.93;1.40;;;12.60;55.00;;;;;;4953935;28;20053;-51
2023/10/15 11:41:50;;;;;;;5.93;1.17;;;12.60;55.20;;;;;;4954663;28;20526;-50
2023/10/15 11:44:25;;;;;;;8.02;1.55;;;12.50;55.20;;;;;;4956649;28;20062;-52
2023/10/15 11:46:55;;;;;;;4.80;1.25;;;12.50;55.40;;;;;;4958624;28;20419;-48
2023/10/15 11:49:23;;;;;;;3.92;1.25;;;12.50;55.60;;;;;;4953078;28;20062;-49
2023/10/15 11:51:55;;;;;;;3.25;1.50;;;12.50;55.80;;;;;;4956301;28;20043;-47
2023/10/15 11:54:27;;;;;;;4.43;1.60;;;12.40;55.80;;;;;;4957297;28;20062;-52
2023/10/15 11:56:56;;;;;;;5.05;1.73;;;12.30;55.70;;;;;;4956612;28;20050;-51
2023/10/15 11:59:24;;;;;;;4.07;1.30;;;12.30;55.70;;;;;;4959150;28;20050;-46
2023/10/15 12:01:52;;;;;;;4.32;1.23;;;12.30;55.50;;;;;;4960472;28;20066;-49
2023/10/15 12:04:23;;;;;;;3.33;1.38;;;12.30;55.50;;;;;;4963801;28;20070;-50
2023/10/15 12:06:52;;;;;;;8.30;1.40;;;12.40;55.60;;;;;;4964844;28;20051;-52
2023/10/15 12:09:24;;;;;;;7.43;1.45;;;12.30;55.70;;;;;;4961843;28;20439;-47
2023/10/15 12:11:52;;;;;;;5.05;1.33;;;12.40;55.40;;;;;;4964090;28;20661;-51
2023/10/15 12:14:19;;;;;;;5.32;1.50;;;12.40;55.40;;;;;;4962332;28;20050;-49
2023/10/15 12:16:46;;;;;;;4.05;1.30;;;12.50;55.50;;;;;;4964814;28;20066;-52
2023/10/15 12:19:13;;;;;;;6.13;2.10;;;12.50;55.70;;;;;;4963961;28;20055;-49
2023/10/15 12:21:43;;;;;;;5.28;1.85;;;12.60;55.20;;;;;;4963826;28;20054;-46
2023/10/15 12:24:13;;;;;;;5.28;2.20;;;12.60;55.60;;;;;;4961609;28;20065;-50
2023/10/15 12:26:40;;;;;;;4.53;1.80;;;12.70;55.40;;;;;;4962851;28;20051;-50
2023/10/15 12:29:08;;;;;;;5.03;1.48;;;12.70;55.70;;;;;;4961946;28;20511;-47
2023/10/15 12:31:38;;;;;;;4.63;1.73;;;12.80;55.40;;;;;;4961848;28;20073;-49
2023/10/15 12:34:08;;;;;;;6.93;2.17;;;12.80;54.40;;;;;;4960002;28;20055;-48
2023/10/15 12:36:36;;;;;;;7.05;1.70;;;12.80;54.30;;;;;;4962377;28;20051;-50
2023/10/15 12:39:06;;;;;;;3.90;1.25;;;12.80;53.80;;;;;;4959158;28;20055;-49
2023/10/15 12:41:38;;;;;;;5.38;1.92;;;12.80;54.30;;;;;;4961601;28;20058;-49
2023/10/15 12:44:09;;;;;;;4.20;1.40;;;12.80;54.40;;;;;;4960460;28;20047;-49
2023/10/15 12:46:37;;;;;;;3.95;1.17;;;12.70;54.50;;;;;;4961900;28;20061;-46
2023/10/15 12:49:05;;;;;;;4.47;1.40;;;12.70;54.70;;;;;;4962133;28;20051;-48
2023/10/15 12:51:32;;;;;;;4.65;1.27;;;12.60;54.90;;;;;;4958858;28;20058;-50
2023/10/15 12:54:00;;;;;;;3.47;1.25;;;12.50;55.00;;;;;;4961338;28;20518;-45
2023/10/15 12:56:30;;;;;;;5.97;1.27;;;12.50;55.10;;;;;;4959058;28;20046;-49
2023/10/15 12:58:58;;;;;;;7.68;1.02;;;12.40;55.20;;;;;;4961796;28;20047;-50
2023/10/15 13:01:26;;;;;;;4.38;1.17;;;12.40;55.50;;;;;;4962602;28;20062;-49
2023/10/15 13:03:54;;;;;;;3.38;1.15;;;12.30;55.50;;;;;;4961555;28;20420;-49